sensor_id;sensor_type;location;lat;lon;timestamp;P1;durP1;ratioP1;P2;durP2;ratioP2
51614;SDS011;37695;52.960;6.188;2022-10-16T00:01:21;5.90;;;2.00;;
51614;SDS011;37695;52.960;6.188;2022-10-16T00:03:48;5.28;;;1.75;;
51614;SDS011;37695;52.960;6.188;2022-10-16T00:06:14;7.63;;;1.95;;
51614;SDS011;37695;52.960;6.188;2022-10-16T00:08:41;3.97;;;1.50;;
51614;SDS011;37695;52.960;6.188;2022-10-16T00:11:09;5.25;;;1.90;;
51614;SDS011;37695;52.960;6.188;2022-10-16T00:13:40;4.32;;;1.90;;
51614;SDS011;37695;52.960;6.188;2022-10-16T00:16:07;3.38;;;1.50;;
51614;SDS011;37695;52.960;6.188;2022-10-16T00:18:34;7.07;;;1.67;;
51614;SDS011;37695;52.960;6.188;2022-10-16T00:21:05;3.83;;;1.50;;
51614;SDS011;37695;52.960;6.188;2022-10-16T00:23:35;4.30;;;1.98;;
51614;SDS011;37695;52.960;6.188;2022-10-16T00:26:03;5.47;;;2.00;;
51614;SDS011;37695;52.960;6.188;2022-10-16T00:28:34;4.07;;;1.70;;
51614;SDS011;37695;52.960;6.188;2022-10-16T00:31:04;5.43;;;1.65;;
51614;SDS011;37695;52.960;6.188;2022-10-16T00:33:31;3.90;;;1.65;;
51614;SDS011;37695;52.960;6.188;2022-10-16T00:35:58;4.40;;;1.60;;
51614;SDS011;37695;52.960;6.188;2022-10-16T00:38:24;4.18;;;1.60;;
51614;SDS011;37695;52.960;6.188;2022-10-16T00:40:50;3.70;;;1.52;;
51614;SDS011;37695;52.960;6.188;2022-10-16T00:43:35;3.63;;;1.92;;
51614;SDS011;37695;52.960;6.188;2022-10-16T00:46:17;2.88;;;1.58;;
51614;SDS011;37695;52.960;6.188;2022-10-16T00:51:31;5.30;;;2.00;;
51614;SDS011;37695;52.960;6.188;2022-10-16T00:54:00;3.50;;;1.55;;
51614;SDS011;37695;52.960;6.188;2022-10-16T00:56:33;2.53;;;1.33;;
51614;SDS011;37695;52.960;6.188;2022-10-16T00:58:59;4.18;;;1.73;;
51614;SDS011;37695;52.960;6.188;2022-10-16T01:01:27;3.45;;;1.55;;
51614;SDS011;37695;52.960;6.188;2022-10-16T01:03:53;5.13;;;1.77;;
51614;SDS011;37695;52.960;6.188;2022-10-16T01:06:21;3.67;;;1.55;;
51614;SDS011;37695;52.960;6.188;2022-10-16T01:12:10;4.28;;;1.88;;
51614;SDS011;37695;52.960;6.188;2022-10-16T01:14:44;6.53;;;2.08;;
51614;SDS011;37695;52.960;6.188;2022-10-16T01:17:12;5.43;;;1.80;;
51614;SDS011;37695;52.960;6.188;2022-10-16T01:22:18;5.65;;;1.80;;
51614;SDS011;37695;52.960;6.188;2022-10-16T01:24:48;4.97;;;1.90;;
51614;SDS011;37695;52.960;6.188;2022-10-16T01:27:17;4.28;;;1.80;;
51614;SDS011;37695;52.960;6.188;2022-10-16T01:32:44;4.20;;;1.60;;
51614;SDS011;37695;52.960;6.188;2022-10-16T01:35:18;6.38;;;2.03;;
51614;SDS011;37695;52.960;6.188;2022-10-16T01:40:37;5.32;;;1.77;;
51614;SDS011;37695;52.960;6.188;2022-10-16T01:43:07;3.67;;;1.80;;
51614;SDS011;37695;52.960;6.188;2022-10-16T01:45:37;3.42;;;1.63;;
51614;SDS011;37695;52.960;6.188;2022-10-16T01:48:05;3.42;;;1.60;;
51614;SDS011;37695;52.960;6.188;2022-10-16T01:50:34;6.80;;;2.17;;
51614;SDS011;37695;52.960;6.188;2022-10-16T01:53:03;6.20;;;1.60;;
51614;SDS011;37695;52.960;6.188;2022-10-16T01:55:31;5.45;;;1.90;;
51614;SDS011;37695;52.960;6.188;2022-10-16T01:58:00;4.90;;;2.00;;
51614;SDS011;37695;52.960;6.188;2022-10-16T02:00:29;4.63;;;2.38;;
51614;SDS011;37695;52.960;6.188;2022-10-16T02:02:55;2.05;;;1.45;;
51614;SDS011;37695;52.960;6.188;2022-10-16T02:08:28;3.80;;;1.83;;
51614;SDS011;37695;52.960;6.188;2022-10-16T02:10:56;6.90;;;2.05;;
51614;SDS011;37695;52.960;6.188;2022-10-16T02:13:24;3.40;;;1.70;;
51614;SDS011;37695;52.960;6.188;2022-10-16T02:15:54;4.53;;;2.00;;
51614;SDS011;37695;52.960;6.188;2022-10-16T02:18:20;4.40;;;1.73;;
51614;SDS011;37695;52.960;6.188;2022-10-16T02:20:59;3.25;;;1.80;;
51614;SDS011;37695;52.960;6.188;2022-10-16T02:23:40;2.97;;;1.83;;
51614;SDS011;37695;52.960;6.188;2022-10-16T02:26:26;3.38;;;1.73;;
51614;SDS011;37695;52.960;6.188;2022-10-16T02:29:00;2.40;;;1.75;;
51614;SDS011;37695;52.960;6.188;2022-10-16T02:31:31;3.03;;;1.42;;
51614;SDS011;37695;52.960;6.188;2022-10-16T02:34:00;2.78;;;1.52;;
51614;SDS011;37695;52.960;6.188;2022-10-16T02:36:29;3.28;;;1.88;;
51614;SDS011;37695;52.960;6.188;2022-10-16T02:38:56;4.47;;;1.83;;
51614;SDS011;37695;52.960;6.188;2022-10-16T02:41:22;3.55;;;1.60;;
51614;SDS011;37695;52.960;6.188;2022-10-16T02:43:48;3.17;;;1.88;;
51614;SDS011;37695;52.960;6.188;2022-10-16T02:46:14;6.10;;;1.98;;
51614;SDS011;37695;52.960;6.188;2022-10-16T02:48:40;3.60;;;1.65;;
51614;SDS011;37695;52.960;6.188;2022-10-16T02:51:06;4.45;;;1.60;;
51614;SDS011;37695;52.960;6.188;2022-10-16T02:53:31;3.22;;;1.60;;
51614;SDS011;37695;52.960;6.188;2022-10-16T02:55:57;3.13;;;1.70;;
51614;SDS011;37695;52.960;6.188;2022-10-16T02:58:22;4.22;;;2.10;;
51614;SDS011;37695;52.960;6.188;2022-10-16T03:00:48;6.15;;;2.00;;
51614;SDS011;37695;52.960;6.188;2022-10-16T03:03:13;3.58;;;1.80;;
51614;SDS011;37695;52.960;6.188;2022-10-16T03:05:39;3.83;;;1.88;;
51614;SDS011;37695;52.960;6.188;2022-10-16T03:08:04;4.25;;;1.85;;
51614;SDS011;37695;52.960;6.188;2022-10-16T03:10:30;4.40;;;2.00;;
51614;SDS011;37695;52.960;6.188;2022-10-16T03:12:56;3.20;;;1.90;;
51614;SDS011;37695;52.960;6.188;2022-10-16T03:15:22;3.03;;;1.80;;
51614;SDS011;37695;52.960;6.188;2022-10-16T03:17:47;3.67;;;1.80;;
51614;SDS011;37695;52.960;6.188;2022-10-16T03:20:13;3.78;;;1.55;;
51614;SDS011;37695;52.960;6.188;2022-10-16T03:22:38;2.47;;;1.63;;
51614;SDS011;37695;52.960;6.188;2022-10-16T03:25:04;3.50;;;1.70;;
51614;SDS011;37695;52.960;6.188;2022-10-16T03:27:30;2.90;;;1.70;;
51614;SDS011;37695;52.960;6.188;2022-10-16T03:29:56;3.28;;;1.77;;
51614;SDS011;37695;52.960;6.188;2022-10-16T03:32:21;5.60;;;1.92;;
51614;SDS011;37695;52.960;6.188;2022-10-16T03:34:47;4.00;;;1.90;;
51614;SDS011;37695;52.960;6.188;2022-10-16T03:37:12;3.97;;;1.67;;
51614;SDS011;37695;52.960;6.188;2022-10-16T03:39:38;3.88;;;1.92;;
51614;SDS011;37695;52.960;6.188;2022-10-16T03:42:03;4.43;;;1.80;;
51614;SDS011;37695;52.960;6.188;2022-10-16T03:44:29;2.72;;;1.70;;
51614;SDS011;37695;52.960;6.188;2022-10-16T03:46:54;2.22;;;1.50;;
51614;SDS011;37695;52.960;6.188;2022-10-16T03:49:20;4.93;;;1.88;;
51614;SDS011;37695;52.960;6.188;2022-10-16T03:51:45;3.97;;;1.85;;
51614;SDS011;37695;52.960;6.188;2022-10-16T03:54:11;4.55;;;1.90;;
51614;SDS011;37695;52.960;6.188;2022-10-16T03:56:37;4.93;;;2.03;;
51614;SDS011;37695;52.960;6.188;2022-10-16T03:59:03;3.45;;;1.83;;
51614;SDS011;37695;52.960;6.188;2022-10-16T04:01:28;3.45;;;1.95;;
51614;SDS011;37695;52.960;6.188;2022-10-16T04:03:54;3.83;;;1.98;;
51614;SDS011;37695;52.960;6.188;2022-10-16T04:06:19;5.15;;;2.17;;
51614;SDS011;37695;52.960;6.188;2022-10-16T04:08:45;3.63;;;1.90;;
51614;SDS011;37695;52.960;6.188;2022-10-16T04:11:11;3.75;;;2.05;;
51614;SDS011;37695;52.960;6.188;2022-10-16T04:13:36;3.83;;;1.90;;
51614;SDS011;37695;52.960;6.188;2022-10-16T04:16:02;3.38;;;1.83;;
51614;SDS011;37695;52.960;6.188;2022-10-16T04:18:28;3.60;;;2.10;;
51614;SDS011;37695;52.960;6.188;2022-10-16T04:20:54;2.92;;;1.80;;
51614;SDS011;37695;52.960;6.188;2022-10-16T04:23:19;4.75;;;2.08;;
51614;SDS011;37695;52.960;6.188;2022-10-16T04:25:45;2.45;;;1.70;;
51614;SDS011;37695;52.960;6.188;2022-10-16T04:28:10;3.95;;;1.92;;
51614;SDS011;37695;52.960;6.188;2022-10-16T04:30:37;5.88;;;1.90;;
51614;SDS011;37695;52.960;6.188;2022-10-16T04:33:04;4.05;;;2.08;;
51614;SDS011;37695;52.960;6.188;2022-10-16T04:35:29;4.47;;;1.90;;
51614;SDS011;37695;52.960;6.188;2022-10-16T04:37:56;3.63;;;2.00;;
51614;SDS011;37695;52.960;6.188;2022-10-16T04:40:22;5.32;;;2.10;;
51614;SDS011;37695;52.960;6.188;2022-10-16T04:42:48;2.95;;;1.88;;
51614;SDS011;37695;52.960;6.188;2022-10-16T04:45:13;7.38;;;2.10;;
51614;SDS011;37695;52.960;6.188;2022-10-16T04:47:39;4.95;;;2.05;;
51614;SDS011;37695;52.960;6.188;2022-10-16T04:50:05;4.18;;;2.03;;
51614;SDS011;37695;52.960;6.188;2022-10-16T04:52:32;3.75;;;1.90;;
51614;SDS011;37695;52.960;6.188;2022-10-16T04:54:57;5.32;;;2.10;;
51614;SDS011;37695;52.960;6.188;2022-10-16T04:57:26;2.85;;;1.95;;
51614;SDS011;37695;52.960;6.188;2022-10-16T04:59:52;4.43;;;2.13;;
51614;SDS011;37695;52.960;6.188;2022-10-16T05:02:18;5.30;;;2.30;;
51614;SDS011;37695;52.960;6.188;2022-10-16T05:04:43;3.95;;;2.10;;
51614;SDS011;37695;52.960;6.188;2022-10-16T05:07:09;3.60;;;1.88;;
51614;SDS011;37695;52.960;6.188;2022-10-16T05:09:34;5.18;;;2.13;;
51614;SDS011;37695;52.960;6.188;2022-10-16T05:12:00;4.13;;;2.38;;
51614;SDS011;37695;52.960;6.188;2022-10-16T05:14:25;5.25;;;2.38;;
51614;SDS011;37695;52.960;6.188;2022-10-16T05:16:51;5.93;;;2.13;;
51614;SDS011;37695;52.960;6.188;2022-10-16T05:19:17;4.90;;;2.30;;
51614;SDS011;37695;52.960;6.188;2022-10-16T05:21:42;4.40;;;2.15;;
51614;SDS011;37695;52.960;6.188;2022-10-16T05:24:08;3.90;;;2.40;;
51614;SDS011;37695;52.960;6.188;2022-10-16T05:26:34;4.90;;;2.33;;
51614;SDS011;37695;52.960;6.188;2022-10-16T05:28:59;3.75;;;2.22;;
51614;SDS011;37695;52.960;6.188;2022-10-16T05:31:25;3.53;;;2.17;;
51614;SDS011;37695;52.960;6.188;2022-10-16T05:33:51;2.88;;;2.00;;
51614;SDS011;37695;52.960;6.188;2022-10-16T05:36:17;4.22;;;2.20;;
51614;SDS011;37695;52.960;6.188;2022-10-16T05:38:43;4.63;;;2.10;;
51614;SDS011;37695;52.960;6.188;2022-10-16T05:41:09;5.90;;;2.30;;
51614;SDS011;37695;52.960;6.188;2022-10-16T05:43:34;4.72;;;2.40;;
51614;SDS011;37695;52.960;6.188;2022-10-16T05:46:01;5.68;;;2.40;;
51614;SDS011;37695;52.960;6.188;2022-10-16T05:48:29;4.32;;;2.33;;
51614;SDS011;37695;52.960;6.188;2022-10-16T05:51:02;5.72;;;2.10;;
51614;SDS011;37695;52.960;6.188;2022-10-16T05:55:56;5.70;;;2.47;;
51614;SDS011;37695;52.960;6.188;2022-10-16T05:58:21;4.20;;;1.98;;
51614;SDS011;37695;52.960;6.188;2022-10-16T06:00:54;3.88;;;2.22;;
51614;SDS011;37695;52.960;6.188;2022-10-16T06:03:28;3.20;;;2.05;;
51614;SDS011;37695;52.960;6.188;2022-10-16T06:05:53;4.40;;;2.30;;
51614;SDS011;37695;52.960;6.188;2022-10-16T06:08:20;6.53;;;2.53;;
51614;SDS011;37695;52.960;6.188;2022-10-16T06:10:47;3.72;;;2.10;;
51614;SDS011;37695;52.960;6.188;2022-10-16T06:13:13;3.70;;;2.10;;
51614;SDS011;37695;52.960;6.188;2022-10-16T06:15:40;2.65;;;2.00;;
51614;SDS011;37695;52.960;6.188;2022-10-16T06:18:07;4.85;;;2.33;;
51614;SDS011;37695;52.960;6.188;2022-10-16T06:20:33;3.92;;;2.10;;
51614;SDS011;37695;52.960;6.188;2022-10-16T06:22:59;3.58;;;2.40;;
51614;SDS011;37695;52.960;6.188;2022-10-16T06:25:25;5.40;;;2.38;;
51614;SDS011;37695;52.960;6.188;2022-10-16T06:27:50;6.63;;;2.22;;
51614;SDS011;37695;52.960;6.188;2022-10-16T06:30:16;4.15;;;2.17;;
51614;SDS011;37695;52.960;6.188;2022-10-16T06:32:41;3.22;;;2.10;;
51614;SDS011;37695;52.960;6.188;2022-10-16T06:35:07;4.85;;;2.42;;
51614;SDS011;37695;52.960;6.188;2022-10-16T06:37:33;5.00;;;2.00;;
51614;SDS011;37695;52.960;6.188;2022-10-16T06:39:58;4.82;;;2.38;;
51614;SDS011;37695;52.960;6.188;2022-10-16T06:42:25;4.95;;;2.28;;
51614;SDS011;37695;52.960;6.188;2022-10-16T06:44:50;3.75;;;2.20;;
51614;SDS011;37695;52.960;6.188;2022-10-16T06:47:16;4.68;;;2.13;;
51614;SDS011;37695;52.960;6.188;2022-10-16T06:49:41;4.65;;;2.10;;
51614;SDS011;37695;52.960;6.188;2022-10-16T06:52:07;3.65;;;2.00;;
51614;SDS011;37695;52.960;6.188;2022-10-16T06:54:33;3.83;;;2.00;;
51614;SDS011;37695;52.960;6.188;2022-10-16T06:56:58;5.53;;;2.38;;
51614;SDS011;37695;52.960;6.188;2022-10-16T06:59:25;4.05;;;2.00;;
51614;SDS011;37695;52.960;6.188;2022-10-16T07:01:50;4.65;;;2.17;;
51614;SDS011;37695;52.960;6.188;2022-10-16T07:04:16;4.20;;;2.28;;
51614;SDS011;37695;52.960;6.188;2022-10-16T07:06:41;3.13;;;2.00;;
51614;SDS011;37695;52.960;6.188;2022-10-16T07:09:09;4.38;;;2.20;;
51614;SDS011;37695;52.960;6.188;2022-10-16T07:11:38;5.10;;;2.30;;
51614;SDS011;37695;52.960;6.188;2022-10-16T07:14:08;3.47;;;2.20;;
51614;SDS011;37695;52.960;6.188;2022-10-16T07:16:43;3.67;;;1.92;;
51614;SDS011;37695;52.960;6.188;2022-10-16T07:19:09;4.53;;;2.22;;
51614;SDS011;37695;52.960;6.188;2022-10-16T07:21:36;4.88;;;2.30;;
51614;SDS011;37695;52.960;6.188;2022-10-16T07:24:04;4.95;;;1.90;;
51614;SDS011;37695;52.960;6.188;2022-10-16T07:26:32;5.32;;;2.20;;
51614;SDS011;37695;52.960;6.188;2022-10-16T07:28:59;3.75;;;2.13;;
51614;SDS011;37695;52.960;6.188;2022-10-16T07:31:25;4.68;;;2.22;;
51614;SDS011;37695;52.960;6.188;2022-10-16T07:33:51;4.30;;;1.90;;
51614;SDS011;37695;52.960;6.188;2022-10-16T07:36:17;2.45;;;1.73;;
51614;SDS011;37695;52.960;6.188;2022-10-16T07:38:44;2.40;;;1.67;;
51614;SDS011;37695;52.960;6.188;2022-10-16T07:41:14;2.30;;;1.83;;
51614;SDS011;37695;52.960;6.188;2022-10-16T07:43:45;5.60;;;2.30;;
51614;SDS011;37695;52.960;6.188;2022-10-16T07:46:15;3.38;;;1.98;;
51614;SDS011;37695;52.960;6.188;2022-10-16T07:48:42;5.78;;;2.20;;
51614;SDS011;37695;52.960;6.188;2022-10-16T07:51:11;3.30;;;1.77;;
51614;SDS011;37695;52.960;6.188;2022-10-16T07:53:37;3.53;;;1.95;;
51614;SDS011;37695;52.960;6.188;2022-10-16T07:56:06;2.25;;;1.60;;
51614;SDS011;37695;52.960;6.188;2022-10-16T07:58:32;4.10;;;1.50;;
51614;SDS011;37695;52.960;6.188;2022-10-16T08:01:02;3.72;;;1.60;;
51614;SDS011;37695;52.960;6.188;2022-10-16T08:03:29;3.55;;;1.65;;
51614;SDS011;37695;52.960;6.188;2022-10-16T08:05:56;3.78;;;1.60;;
51614;SDS011;37695;52.960;6.188;2022-10-16T08:08:23;3.72;;;1.67;;
51614;SDS011;37695;52.960;6.188;2022-10-16T08:10:48;3.47;;;1.42;;
51614;SDS011;37695;52.960;6.188;2022-10-16T08:13:14;2.60;;;1.40;;
51614;SDS011;37695;52.960;6.188;2022-10-16T08:15:41;6.68;;;1.42;;
51614;SDS011;37695;52.960;6.188;2022-10-16T08:18:07;2.08;;;1.42;;
51614;SDS011;37695;52.960;6.188;2022-10-16T08:20:34;3.70;;;1.50;;
51614;SDS011;37695;52.960;6.188;2022-10-16T08:23:00;3.33;;;1.52;;
51614;SDS011;37695;52.960;6.188;2022-10-16T08:25:26;5.00;;;1.55;;
51614;SDS011;37695;52.960;6.188;2022-10-16T08:27:52;3.15;;;1.40;;
51614;SDS011;37695;52.960;6.188;2022-10-16T08:30:18;4.70;;;1.50;;
51614;SDS011;37695;52.960;6.188;2022-10-16T08:32:44;2.95;;;1.45;;
51614;SDS011;37695;52.960;6.188;2022-10-16T08:35:11;3.10;;;1.50;;
51614;SDS011;37695;52.960;6.188;2022-10-16T08:37:37;3.35;;;1.48;;
51614;SDS011;37695;52.960;6.188;2022-10-16T08:40:05;2.05;;;1.27;;
51614;SDS011;37695;52.960;6.188;2022-10-16T08:42:35;3.25;;;1.58;;
51614;SDS011;37695;52.960;6.188;2022-10-16T08:48:14;4.07;;;1.73;;
51614;SDS011;37695;52.960;6.188;2022-10-16T08:50:41;6.97;;;1.90;;
51614;SDS011;37695;52.960;6.188;2022-10-16T08:53:09;4.68;;;1.60;;
51614;SDS011;37695;52.960;6.188;2022-10-16T08:55:45;3.97;;;1.40;;
51614;SDS011;37695;52.960;6.188;2022-10-16T08:58:26;4.45;;;1.70;;
51614;SDS011;37695;52.960;6.188;2022-10-16T09:00:54;4.28;;;1.75;;
51614;SDS011;37695;52.960;6.188;2022-10-16T09:14:19;5.95;;;1.70;;
51614;SDS011;37695;52.960;6.188;2022-10-16T09:17:22;5.70;;;1.77;;
51614;SDS011;37695;52.960;6.188;2022-10-16T09:20:27;3.70;;;1.60;;
51614;SDS011;37695;52.960;6.188;2022-10-16T09:23:48;7.07;;;2.13;;
51614;SDS011;37695;52.960;6.188;2022-10-16T09:26:09;4.57;;;1.60;;
51614;SDS011;37695;52.960;6.188;2022-10-16T09:28:37;7.97;;;1.85;;
51614;SDS011;37695;52.960;6.188;2022-10-16T09:31:03;4.65;;;1.70;;
51614;SDS011;37695;52.960;6.188;2022-10-16T09:33:30;5.57;;;1.67;;
51614;SDS011;37695;52.960;6.188;2022-10-16T09:36:00;7.72;;;1.90;;
51614;SDS011;37695;52.960;6.188;2022-10-16T09:40:54;4.28;;;1.70;;
51614;SDS011;37695;52.960;6.188;2022-10-16T09:43:48;8.02;;;1.90;;
51614;SDS011;37695;52.960;6.188;2022-10-16T09:46:27;6.10;;;2.03;;
51614;SDS011;37695;52.960;6.188;2022-10-16T09:48:55;5.47;;;1.80;;
51614;SDS011;37695;52.960;6.188;2022-10-16T09:51:33;4.80;;;1.90;;
51614;SDS011;37695;52.960;6.188;2022-10-16T09:54:01;8.10;;;2.38;;
51614;SDS011;37695;52.960;6.188;2022-10-16T09:56:38;8.45;;;2.10;;
51614;SDS011;37695;52.960;6.188;2022-10-16T09:59:11;5.88;;;1.63;;
51614;SDS011;37695;52.960;6.188;2022-10-16T10:01:39;6.20;;;1.93;;
51614;SDS011;37695;52.960;6.188;2022-10-16T10:04:06;7.68;;;1.88;;
51614;SDS011;37695;52.960;6.188;2022-10-16T10:06:33;11.00;;;2.47;;
51614;SDS011;37695;52.960;6.188;2022-10-16T10:11:57;8.13;;;2.30;;
51614;SDS011;37695;52.960;6.188;2022-10-16T10:14:30;7.72;;;2.13;;
51614;SDS011;37695;52.960;6.188;2022-10-16T10:19:37;6.78;;;2.17;;
51614;SDS011;37695;52.960;6.188;2022-10-16T10:22:17;8.65;;;2.30;;
51614;SDS011;37695;52.960;6.188;2022-10-16T10:35:15;6.07;;;1.98;;
51614;SDS011;37695;52.960;6.188;2022-10-16T10:37:58;10.73;;;2.25;;
51614;SDS011;37695;52.960;6.188;2022-10-16T10:41:02;10.60;;;2.22;;
51614;SDS011;37695;52.960;6.188;2022-10-16T10:46:07;8.13;;;2.03;;
51614;SDS011;37695;52.960;6.188;2022-10-16T10:48:46;8.77;;;2.53;;
51614;SDS011;37695;52.960;6.188;2022-10-16T10:51:58;9.30;;;2.28;;
51614;SDS011;37695;52.960;6.188;2022-10-16T10:54:29;7.78;;;2.20;;
51614;SDS011;37695;52.960;6.188;2022-10-16T10:59:41;8.40;;;2.28;;
51614;SDS011;37695;52.960;6.188;2022-10-16T11:02:38;5.38;;;1.92;;
51614;SDS011;37695;52.960;6.188;2022-10-16T11:05:20;7.53;;;2.03;;
51614;SDS011;37695;52.960;6.188;2022-10-16T11:08:04;8.85;;;2.78;;
51614;SDS011;37695;52.960;6.188;2022-10-16T11:13:28;7.65;;;2.30;;
51614;SDS011;37695;52.960;6.188;2022-10-16T11:16:03;6.68;;;2.15;;
51614;SDS011;37695;52.960;6.188;2022-10-16T11:18:43;12.52;;;2.42;;
51614;SDS011;37695;52.960;6.188;2022-10-16T11:21:27;7.72;;;2.40;;
51614;SDS011;37695;52.960;6.188;2022-10-16T11:24:04;7.30;;;2.50;;
51614;SDS011;37695;52.960;6.188;2022-10-16T11:26:39;10.68;;;2.50;;
51614;SDS011;37695;52.960;6.188;2022-10-16T11:29:12;10.63;;;2.40;;
51614;SDS011;37695;52.960;6.188;2022-10-16T11:31:45;10.00;;;2.42;;
51614;SDS011;37695;52.960;6.188;2022-10-16T11:34:19;10.70;;;2.17;;
51614;SDS011;37695;52.960;6.188;2022-10-16T11:39:27;8.77;;;2.80;;
51614;SDS011;37695;52.960;6.188;2022-10-16T11:42:00;8.85;;;2.42;;
51614;SDS011;37695;52.960;6.188;2022-10-16T11:44:51;8.15;;;2.15;;
51614;SDS011;37695;52.960;6.188;2022-10-16T11:50:09;11.23;;;2.78;;
51614;SDS011;37695;52.960;6.188;2022-10-16T11:55:40;7.68;;;2.05;;
51614;SDS011;37695;52.960;6.188;2022-10-16T11:58:20;11.13;;;2.63;;
51614;SDS011;37695;52.960;6.188;2022-10-16T12:03:38;7.60;;;2.05;;
51614;SDS011;37695;52.960;6.188;2022-10-16T12:08:57;10.48;;;2.60;;
51614;SDS011;37695;52.960;6.188;2022-10-16T12:14:07;10.05;;;2.45;;
51614;SDS011;37695;52.960;6.188;2022-10-16T12:16:37;7.63;;;2.47;;
51614;SDS011;37695;52.960;6.188;2022-10-16T12:19:25;9.07;;;2.50;;
51614;SDS011;37695;52.960;6.188;2022-10-16T12:21:52;9.60;;;2.45;;
51614;SDS011;37695;52.960;6.188;2022-10-16T12:24:21;9.35;;;3.03;;
51614;SDS011;37695;52.960;6.188;2022-10-16T12:26:54;7.60;;;2.05;;
51614;SDS011;37695;52.960;6.188;2022-10-16T12:29:34;9.73;;;2.45;;
51614;SDS011;37695;52.960;6.188;2022-10-16T12:32:05;9.40;;;2.10;;
51614;SDS011;37695;52.960;6.188;2022-10-16T12:34:55;9.55;;;1.98;;
51614;SDS011;37695;52.960;6.188;2022-10-16T12:37:25;10.00;;;2.53;;
51614;SDS011;37695;52.960;6.188;2022-10-16T12:40:10;8.02;;;1.80;;
51614;SDS011;37695;52.960;6.188;2022-10-16T12:42:38;9.63;;;1.85;;
51614;SDS011;37695;52.960;6.188;2022-10-16T12:45:27;8.30;;;1.75;;
51614;SDS011;37695;52.960;6.188;2022-10-16T12:47:54;7.25;;;2.00;;
51614;SDS011;37695;52.960;6.188;2022-10-16T12:52:56;11.30;;;2.17;;
51614;SDS011;37695;52.960;6.188;2022-10-16T12:55:22;7.65;;;2.20;;
51614;SDS011;37695;52.960;6.188;2022-10-16T12:57:57;10.73;;;2.35;;
51614;SDS011;37695;52.960;6.188;2022-10-16T13:00:44;7.45;;;1.90;;
51614;SDS011;37695;52.960;6.188;2022-10-16T13:09:10;6.50;;;2.10;;
51614;SDS011;37695;52.960;6.188;2022-10-16T13:12:01;8.60;;;2.20;;
51614;SDS011;37695;52.960;6.188;2022-10-16T13:14:52;9.55;;;2.10;;
51614;SDS011;37695;52.960;6.188;2022-10-16T13:17:33;8.77;;;2.20;;
51614;SDS011;37695;52.960;6.188;2022-10-16T13:23:15;7.57;;;1.90;;
51614;SDS011;37695;52.960;6.188;2022-10-16T13:28:28;11.10;;;2.50;;
51614;SDS011;37695;52.960;6.188;2022-10-16T13:30:57;9.73;;;2.20;;
51614;SDS011;37695;52.960;6.188;2022-10-16T13:33:34;8.80;;;2.00;;
51614;SDS011;37695;52.960;6.188;2022-10-16T13:36:01;9.43;;;2.78;;
51614;SDS011;37695;52.960;6.188;2022-10-16T13:38:29;6.72;;;2.08;;
51614;SDS011;37695;52.960;6.188;2022-10-16T13:41:04;9.52;;;2.30;;
51614;SDS011;37695;52.960;6.188;2022-10-16T13:43:48;11.40;;;2.67;;
51614;SDS011;37695;52.960;6.188;2022-10-16T13:48:43;11.45;;;2.30;;
51614;SDS011;37695;52.960;6.188;2022-10-16T13:53:42;6.57;;;2.08;;
51614;SDS011;37695;52.960;6.188;2022-10-16T13:56:16;12.27;;;1.95;;
51614;SDS011;37695;52.960;6.188;2022-10-16T14:01:16;8.43;;;1.95;;
51614;SDS011;37695;52.960;6.188;2022-10-16T14:03:45;6.85;;;2.13;;
51614;SDS011;37695;52.960;6.188;2022-10-16T14:06:13;8.27;;;1.98;;
51614;SDS011;37695;52.960;6.188;2022-10-16T14:08:42;7.80;;;2.50;;
51614;SDS011;37695;52.960;6.188;2022-10-16T14:11:10;4.68;;;1.77;;
51614;SDS011;37695;52.960;6.188;2022-10-16T14:13:38;6.25;;;1.92;;
51614;SDS011;37695;52.960;6.188;2022-10-16T14:16:15;7.32;;;2.10;;
51614;SDS011;37695;52.960;6.188;2022-10-16T14:18:44;5.38;;;1.80;;
51614;SDS011;37695;52.960;6.188;2022-10-16T14:21:14;6.40;;;1.98;;
51614;SDS011;37695;52.960;6.188;2022-10-16T14:23:41;7.07;;;2.28;;
51614;SDS011;37695;52.960;6.188;2022-10-16T14:28:33;8.18;;;2.10;;
51614;SDS011;37695;52.960;6.188;2022-10-16T14:31:00;8.25;;;1.77;;
51614;SDS011;37695;52.960;6.188;2022-10-16T14:38:33;6.43;;;2.03;;
51614;SDS011;37695;52.960;6.188;2022-10-16T14:40:59;9.57;;;2.35;;
51614;SDS011;37695;52.960;6.188;2022-10-16T14:45:54;9.50;;;2.53;;
51614;SDS011;37695;52.960;6.188;2022-10-16T14:48:21;6.75;;;2.13;;
51614;SDS011;37695;52.960;6.188;2022-10-16T14:50:47;6.72;;;2.13;;
51614;SDS011;37695;52.960;6.188;2022-10-16T14:53:13;10.75;;;2.47;;
51614;SDS011;37695;52.960;6.188;2022-10-16T14:55:40;10.57;;;2.20;;
51614;SDS011;37695;52.960;6.188;2022-10-16T14:58:09;8.00;;;2.08;;
51614;SDS011;37695;52.960;6.188;2022-10-16T15:00:43;7.38;;;2.28;;
51614;SDS011;37695;52.960;6.188;2022-10-16T15:03:09;6.95;;;1.80;;
51614;SDS011;37695;52.960;6.188;2022-10-16T15:05:35;8.68;;;2.05;;
51614;SDS011;37695;52.960;6.188;2022-10-16T15:08:00;8.68;;;2.13;;
51614;SDS011;37695;52.960;6.188;2022-10-16T15:10:27;7.53;;;2.22;;
51614;SDS011;37695;52.960;6.188;2022-10-16T15:12:53;10.02;;;2.58;;
51614;SDS011;37695;52.960;6.188;2022-10-16T15:17:48;8.13;;;2.10;;
51614;SDS011;37695;52.960;6.188;2022-10-16T15:20:17;8.93;;;2.25;;
51614;SDS011;37695;52.960;6.188;2022-10-16T15:22:43;7.00;;;2.05;;
51614;SDS011;37695;52.960;6.188;2022-10-16T15:25:43;8.43;;;2.22;;
51614;SDS011;37695;52.960;6.188;2022-10-16T15:28:06;6.35;;;2.00;;
51614;SDS011;37695;52.960;6.188;2022-10-16T15:30:33;7.53;;;2.30;;
51614;SDS011;37695;52.960;6.188;2022-10-16T15:32:59;8.48;;;2.38;;
51614;SDS011;37695;52.960;6.188;2022-10-16T15:35:25;9.25;;;2.13;;
51614;SDS011;37695;52.960;6.188;2022-10-16T15:37:50;10.75;;;2.30;;
51614;SDS011;37695;52.960;6.188;2022-10-16T15:40:17;11.57;;;3.05;;
51614;SDS011;37695;52.960;6.188;2022-10-16T15:42:43;7.38;;;1.90;;
51614;SDS011;37695;52.960;6.188;2022-10-16T15:45:09;12.23;;;2.65;;
51614;SDS011;37695;52.960;6.188;2022-10-16T15:47:36;11.13;;;2.72;;
51614;SDS011;37695;52.960;6.188;2022-10-16T15:50:02;11.38;;;2.08;;
51614;SDS011;37695;52.960;6.188;2022-10-16T15:52:28;9.93;;;2.20;;
51614;SDS011;37695;52.960;6.188;2022-10-16T15:54:56;5.93;;;2.15;;
51614;SDS011;37695;52.960;6.188;2022-10-16T15:57:22;8.88;;;2.45;;
51614;SDS011;37695;52.960;6.188;2022-10-16T15:59:48;8.27;;;2.05;;
51614;SDS011;37695;52.960;6.188;2022-10-16T16:02:14;7.75;;;2.17;;
51614;SDS011;37695;52.960;6.188;2022-10-16T16:04:40;9.82;;;2.40;;
51614;SDS011;37695;52.960;6.188;2022-10-16T16:07:05;7.70;;;2.13;;
51614;SDS011;37695;52.960;6.188;2022-10-16T16:09:32;6.47;;;1.95;;
51614;SDS011;37695;52.960;6.188;2022-10-16T16:11:58;5.82;;;2.25;;
51614;SDS011;37695;52.960;6.188;2022-10-16T16:14:25;9.60;;;2.42;;
51614;SDS011;37695;52.960;6.188;2022-10-16T16:16:53;9.52;;;2.40;;
51614;SDS011;37695;52.960;6.188;2022-10-16T16:19:19;6.38;;;1.85;;
51614;SDS011;37695;52.960;6.188;2022-10-16T16:21:45;10.65;;;2.45;;
51614;SDS011;37695;52.960;6.188;2022-10-16T16:24:11;9.57;;;2.38;;
51614;SDS011;37695;52.960;6.188;2022-10-16T16:26:37;8.10;;;1.85;;
51614;SDS011;37695;52.960;6.188;2022-10-16T16:29:04;11.05;;;2.28;;
51614;SDS011;37695;52.960;6.188;2022-10-16T16:31:31;12.02;;;1.75;;
51614;SDS011;37695;52.960;6.188;2022-10-16T16:33:57;7.95;;;2.05;;
51614;SDS011;37695;52.960;6.188;2022-10-16T16:36:23;8.88;;;2.45;;
51614;SDS011;37695;52.960;6.188;2022-10-16T16:38:50;6.25;;;1.85;;
51614;SDS011;37695;52.960;6.188;2022-10-16T16:41:17;8.90;;;2.15;;
51614;SDS011;37695;52.960;6.188;2022-10-16T16:43:44;7.35;;;1.88;;
51614;SDS011;37695;52.960;6.188;2022-10-16T16:46:10;9.63;;;2.00;;
51614;SDS011;37695;52.960;6.188;2022-10-16T16:48:37;8.05;;;2.45;;
51614;SDS011;37695;52.960;6.188;2022-10-16T16:51:04;9.65;;;2.38;;